Main page
METAR-TAF:

METAR-TAF

Airports :

Al Wajh Domestic Airport

Al Wajh, Saudi Arabia

latitude: 26-12N, longitude: 036-28E, elevation: 20 m

Current weather observation

The report was made 58 minutes ago, at 16:00 UTC
Wind 13 kt from the Northwest
Temperature 31°C
Humidity 63%
Pressure 1006 hPa
Visibility 10 km or more
no clouds below 1500 m and no cumulonimbus

METAR: OEWJ 221600Z 32013KT CAVOK 31/23 Q1006 NOSIG

Time: 19:58 (16:58 UTC)

Forecast

The report was made 17 hours and 58 minutes ago, at 23:00 UTC
Forecast valid from 22 at 00 UTC to 23 at 06 UTC
Wind 10 kt from the North
Visibility 10 km or more
no clouds below 1500 m and no cumulonimbus
Becoming
from 22 at 09 UTC to 22 at 11 UTC
Wind 15 kt from the North/Northwest
Becoming
from 22 at 16 UTC to 22 at 18 UTC
Wind 10 kt from the North

TAF: OEWJ 212300Z 2200/2306 36010KT CAVOK BECMG 2209/2211 33015KT BECMG 2216/2218 35010KT

Weather observations and forecasts of more than 4000 airports (METAR and TAF reports).

The available stations are represented by yellow and red dots on the map.

Hover mouse over dot to see the name of the station.

Then click to see weather observations and forecasts.

To change the map : click on the green buttons with a black cross to zoom in, on the green button with a dash to zoom out, or on the green arrows for adjacent maps.


METAR-TAF: